createdAt,value
2023-11-07T00:00:30.176Z,32.61
2023-11-07T00:02:58.992Z,32.52
2023-11-07T00:05:27.070Z,32.61
2023-11-07T00:07:55.339Z,32.63
2023-11-07T00:10:28.838Z,32.78
2023-11-07T00:12:57.740Z,32.78
2023-11-07T00:15:26.776Z,32.52
2023-11-07T00:17:56.634Z,32.83
2023-11-07T00:20:24.658Z,32.79
2023-11-07T00:22:52.592Z,32.88
2023-11-07T00:25:20.716Z,32.90
2023-11-07T00:27:48.719Z,32.79
2023-11-07T00:30:17.116Z,33.01
2023-11-07T00:32:45.806Z,32.96
2023-11-07T00:35:15.327Z,32.86
2023-11-07T00:37:43.325Z,32.77
2023-11-07T00:40:13.395Z,32.81
2023-11-07T00:42:41.397Z,32.79
2023-11-07T00:45:09.893Z,32.82
2023-11-07T00:47:38.244Z,32.78
2023-11-07T00:50:08.270Z,32.82
2023-11-07T00:52:37.553Z,32.65
2023-11-07T00:55:06.247Z,33.00
2023-11-07T00:57:34.184Z,32.74
2023-11-07T01:00:02.528Z,32.84
2023-11-07T01:02:30.586Z,32.74
2023-11-07T01:04:58.594Z,32.92
2023-11-07T01:07:26.509Z,32.93
2023-11-07T01:09:55.876Z,32.96
2023-11-07T01:12:23.842Z,32.93
2023-11-07T01:14:51.784Z,33.07
2023-11-07T01:17:19.878Z,33.15
2023-11-07T01:19:47.813Z,33.04
2023-11-07T01:22:15.780Z,33.10
2023-11-07T01:24:43.779Z,33.27
2023-11-07T01:27:13.194Z,33.22
2023-11-07T01:29:41.489Z,33.34
2023-11-07T01:32:09.497Z,33.03
2023-11-07T01:34:37.942Z,32.97
2023-11-07T01:37:06.506Z,32.85
2023-11-07T01:39:34.440Z,32.80
2023-11-07T01:42:04.746Z,32.86
2023-11-07T01:44:34.259Z,32.88
2023-11-07T01:47:02.992Z,33.00
2023-11-07T01:49:31.214Z,32.92
2023-11-07T01:51:59.734Z,33.07
2023-11-07T01:54:29.845Z,33.03
2023-11-07T01:56:57.939Z,33.09
2023-11-07T01:59:27.533Z,33.09
2023-11-07T02:02:01.119Z,33.06
2023-11-07T02:04:29.371Z,33.16
2023-11-07T02:06:57.275Z,33.20
2023-11-07T02:09:25.341Z,33.15
2023-11-07T02:11:53.312Z,33.26
2023-11-07T02:14:28.745Z,33.18
2023-11-07T02:16:58.247Z,33.30
2023-11-07T02:19:26.543Z,33.28
2023-11-07T02:21:59.962Z,33.33
2023-11-07T02:24:30.157Z,33.30
2023-11-07T02:26:58.809Z,33.24
2023-11-07T02:29:27.989Z,32.95
2023-11-07T02:31:57.357Z,32.98
2023-11-07T02:34:25.285Z,33.04
2023-11-07T02:36:53.734Z,33.03
2023-11-07T02:39:22.631Z,33.06
2023-11-07T02:41:52.059Z,32.98
2023-11-07T02:44:19.993Z,33.07
2023-11-07T02:46:49.390Z,33.35
2023-11-07T02:49:17.535Z,33.21
2023-11-07T02:51:45.520Z,33.26
2023-11-07T02:54:13.707Z,33.30
2023-11-07T02:56:43.484Z,33.28
2023-11-07T02:59:12.914Z,33.23
2023-11-07T03:01:40.897Z,33.38
2023-11-07T03:04:08.907Z,33.40
2023-11-07T03:06:36.979Z,33.33
2023-11-07T03:09:05.785Z,33.43
2023-11-07T03:11:33.747Z,33.52
2023-11-07T03:14:01.715Z,33.48
2023-11-07T03:16:31.729Z,33.42
2023-11-07T03:18:59.951Z,33.49
2023-11-07T03:21:27.963Z,33.48
2023-11-07T03:23:56.007Z,33.52
2023-11-07T03:26:23.964Z,33.32
2023-11-07T03:28:53.295Z,33.30
2023-11-07T03:31:21.438Z,33.42
2023-11-07T03:33:50.762Z,33.19
2023-11-07T03:36:19.166Z,33.39
2023-11-07T03:38:47.167Z,33.56
2023-11-07T03:41:15.145Z,33.38
2023-11-07T03:43:43.042Z,33.34
2023-11-07T03:46:11.026Z,33.48
2023-11-07T03:48:39.176Z,33.55
2023-11-07T03:51:09.061Z,33.71
2023-11-07T03:53:37.202Z,33.89
2023-11-07T03:56:05.650Z,33.83
2023-11-07T03:58:33.584Z,33.97
2023-11-07T04:01:01.549Z,33.93
2023-11-07T04:03:29.624Z,34.00
2023-11-07T04:05:57.702Z,33.95
2023-11-07T04:08:27.184Z,33.91
2023-11-07T04:10:55.066Z,33.87
2023-11-07T04:13:23.063Z,34.04
2023-11-07T04:15:51.043Z,34.07
2023-11-07T04:18:20.249Z,33.99
2023-11-07T04:20:48.297Z,33.83
2023-11-07T04:23:16.554Z,33.93
2023-11-07T04:25:47.431Z,33.95
2023-11-07T04:28:17.859Z,33.96
2023-11-07T04:30:46.123Z,33.88
2023-11-07T04:33:14.336Z,33.98
2023-11-07T04:35:43.221Z,33.89
2023-11-07T04:38:11.308Z,33.92
2023-11-07T04:40:41.464Z,34.17
2023-11-07T04:43:10.764Z,34.08
2023-11-07T04:45:38.648Z,34.16
2023-11-07T04:48:07.316Z,34.18
2023-11-07T04:50:37.421Z,34.15
2023-11-07T04:53:06.047Z,34.00
2023-11-07T04:55:34.003Z,34.25
2023-11-07T04:58:02.397Z,34.12
2023-11-07T05:00:31.966Z,34.19
2023-11-07T05:03:00.136Z,34.09
2023-11-07T05:05:28.330Z,34.06
2023-11-07T05:07:56.253Z,34.02
2023-11-07T05:10:24.219Z,33.86
2023-11-07T05:12:52.118Z,33.92
2023-11-07T05:15:20.078Z,33.77
2023-11-07T05:17:49.994Z,33.70
2023-11-07T05:20:18.086Z,33.71
2023-11-07T05:22:46.018Z,33.66
2023-11-07T05:25:14.202Z,33.64
2023-11-07T05:27:42.099Z,33.74
2023-11-07T05:30:10.913Z,33.80
2023-11-07T05:32:38.977Z,33.88
2023-11-07T05:35:10.100Z,33.88
2023-11-07T05:37:38.316Z,33.97
2023-11-07T05:40:11.192Z,33.95
2023-11-07T05:42:39.100Z,33.96
2023-11-07T05:45:09.144Z,34.07
2023-11-07T05:47:38.729Z,34.12
2023-11-07T05:50:09.089Z,33.98
2023-11-07T05:52:37.401Z,34.03
2023-11-07T05:55:07.852Z,33.86
2023-11-07T05:57:36.954Z,33.94
2023-11-07T06:00:07.954Z,33.89
2023-11-07T06:02:39.854Z,33.96
2023-11-07T06:05:10.521Z,33.70
2023-11-07T06:07:39.272Z,33.72
2023-11-07T06:10:08.868Z,33.62
2023-11-07T06:12:37.124Z,33.71
2023-11-07T06:15:05.936Z,33.35
2023-11-07T06:17:34.040Z,33.58
2023-11-07T06:20:01.982Z,33.65
2023-11-07T06:22:31.266Z,33.47
2023-11-07T06:24:59.225Z,33.68
2023-11-07T06:27:27.889Z,33.52
2023-11-07T06:29:56.156Z,33.66
2023-11-07T06:32:24.153Z,33.75
2023-11-07T06:34:53.012Z,33.64
2023-11-07T06:37:20.898Z,33.88
2023-11-07T06:39:50.781Z,33.75
2023-11-07T06:42:18.914Z,33.78
2023-11-07T06:44:46.948Z,33.88
2023-11-07T06:47:14.905Z,33.91
2023-11-07T06:49:42.764Z,33.87
2023-11-07T06:52:10.704Z,33.94
2023-11-07T06:54:38.602Z,33.93
2023-11-07T06:57:09.850Z,33.79
2023-11-07T06:59:37.989Z,33.74
2023-11-07T07:02:06.117Z,33.74
2023-11-07T07:04:34.681Z,33.64
2023-11-07T07:07:03.729Z,33.72
2023-11-07T07:09:31.639Z,33.66
2023-11-07T07:11:59.603Z,33.61
2023-11-07T07:14:28.887Z,33.46
2023-11-07T07:16:57.153Z,33.43
2023-11-07T07:19:26.262Z,33.44
2023-11-07T07:21:54.439Z,33.61
2023-11-07T07:24:28.750Z,33.72
2023-11-07T07:26:59.545Z,33.65
2023-11-07T07:29:28.982Z,33.62
2023-11-07T07:31:57.844Z,33.59
2023-11-07T07:34:25.887Z,33.58
2023-11-07T07:36:55.311Z,33.88
2023-11-07T07:39:31.566Z,33.85
2023-11-07T07:42:01.499Z,34.10
2023-11-07T07:44:33.485Z,34.72
2023-11-07T07:47:01.867Z,35.40
2023-11-07T07:49:31.743Z,36.50
2023-11-07T07:52:02.239Z,37.88
2023-11-07T07:54:52.543Z,38.06
2023-11-07T07:57:19.033Z,38.03
2023-11-07T07:59:48.486Z,37.92
2023-11-07T08:02:17.156Z,37.74
2023-11-07T08:04:47.657Z,37.71
2023-11-07T08:07:18.220Z,37.78
2023-11-07T08:09:46.438Z,37.79
2023-11-07T08:12:14.608Z,38.05
2023-11-07T08:14:45.782Z,37.95
2023-11-07T08:17:15.305Z,38.00
2023-11-07T08:19:43.221Z,37.81
2023-11-07T08:22:11.193Z,37.92
2023-11-07T08:24:39.764Z,37.69
2023-11-07T08:27:07.728Z,37.58
2023-11-07T08:29:35.718Z,37.46
2023-11-07T08:32:05.446Z,37.34
2023-11-07T08:34:34.906Z,37.21
2023-11-07T08:37:09.041Z,37.13
2023-11-07T08:39:41.930Z,37.07
2023-11-07T08:42:11.727Z,36.96
2023-11-07T08:44:40.292Z,36.66
2023-11-07T08:47:08.767Z,36.73
2023-11-07T08:49:38.905Z,36.61
2023-11-07T08:52:07.595Z,36.67
2023-11-07T08:54:38.058Z,36.52
2023-11-07T08:57:06.595Z,36.40
2023-11-07T08:59:37.376Z,36.34
2023-11-07T09:02:05.928Z,36.27
2023-11-07T09:04:34.033Z,36.38
2023-11-07T09:07:04.610Z,36.16
2023-11-07T09:09:32.591Z,36.07
2023-11-07T09:12:00.634Z,36.07
2023-11-07T09:14:28.730Z,35.90
2023-11-07T09:16:56.674Z,36.03
2023-11-07T09:19:24.974Z,35.91
2023-11-07T09:21:53.026Z,35.78
2023-11-07T09:24:22.364Z,35.97
2023-11-07T09:26:50.436Z,35.86
2023-11-07T09:29:18.745Z,35.77
2023-11-07T09:31:46.627Z,35.65
2023-11-07T09:34:16.271Z,35.65
2023-11-07T09:36:44.373Z,35.59
2023-11-07T09:39:12.338Z,35.64
2023-11-07T09:41:44.636Z,35.67
2023-11-07T09:44:14.468Z,35.76
2023-11-07T09:46:43.097Z,35.29
2023-11-07T09:49:13.447Z,35.51
2023-11-07T09:51:42.108Z,35.49
2023-11-07T09:54:10.136Z,35.32
2023-11-07T09:56:41.498Z,35.32
2023-11-07T09:59:23.708Z,35.21
2023-11-07T10:01:51.596Z,35.49
2023-11-07T10:04:22.017Z,35.24
2023-11-07T10:06:50.275Z,35.43
2023-11-07T10:09:18.712Z,36.94
2023-11-07T10:11:50.505Z,37.68
2023-11-07T10:14:21.378Z,38.11
2023-11-07T10:16:53.452Z,38.07
2023-11-07T10:19:23.109Z,37.77
2023-11-07T10:21:51.768Z,37.70
2023-11-07T10:24:20.222Z,37.67
2023-11-07T10:26:52.726Z,37.53
2023-11-07T10:29:28.712Z,37.29
2023-11-07T10:32:07.542Z,37.22
2023-11-07T10:34:37.098Z,36.91
2023-11-07T10:37:06.217Z,36.91
2023-11-07T10:39:36.260Z,36.98
2023-11-07T10:42:19.113Z,36.89
2023-11-07T10:44:50.082Z,36.57
2023-11-07T10:47:21.055Z,36.21
2023-11-07T10:49:52.687Z,36.40
2023-11-07T10:52:21.749Z,36.48
2023-11-07T10:54:49.972Z,36.24
2023-11-07T10:57:24.163Z,36.17
2023-11-07T11:00:01.283Z,36.11
2023-11-07T11:02:29.872Z,35.98
2023-11-07T11:05:01.755Z,35.97
2023-11-07T11:07:33.345Z,35.68
2023-11-07T11:10:04.291Z,35.86
2023-11-07T11:12:34.392Z,35.88
2023-11-07T11:15:04.234Z,35.77
2023-11-07T11:17:38.814Z,35.76
2023-11-07T11:20:23.955Z,35.69
2023-11-07T11:22:57.451Z,35.54
2023-11-07T11:25:36.534Z,35.66
2023-11-07T11:28:06.697Z,35.62
2023-11-07T11:30:41.699Z,35.68
2023-11-07T11:33:11.632Z,35.59
2023-11-07T11:35:41.482Z,35.23
2023-11-07T11:38:14.727Z,35.34
2023-11-07T11:40:57.806Z,35.21
2023-11-07T11:43:27.048Z,35.15
2023-11-07T11:45:59.808Z,35.32
2023-11-07T11:49:04.238Z,35.03
2023-11-07T11:51:33.302Z,35.13
2023-11-07T11:54:01.546Z,34.89
2023-11-07T11:56:29.715Z,34.84
2023-11-07T11:59:08.178Z,34.88
2023-11-07T12:01:50.903Z,34.83
2023-11-07T12:04:29.243Z,34.70
2023-11-07T12:07:23.633Z,34.63
2023-11-07T12:09:57.340Z,34.79
2023-11-07T12:12:26.179Z,34.73
2023-11-07T12:14:55.665Z,34.65
2023-11-07T12:17:27.206Z,34.69
2023-11-07T12:20:04.375Z,34.63
2023-11-07T12:22:34.449Z,34.75
2023-11-07T12:25:14.962Z,34.63
2023-11-07T12:27:43.436Z,34.60
2023-11-07T12:30:17.162Z,34.65
2023-11-07T12:32:47.569Z,34.61
2023-11-07T12:35:23.225Z,34.56
2023-11-07T12:37:52.992Z,34.54
2023-11-07T12:40:21.578Z,34.48
2023-11-07T12:42:54.161Z,34.24
2023-11-07T12:45:25.981Z,34.52
2023-11-07T12:48:05.098Z,34.38
2023-11-07T12:50:34.893Z,34.41
2023-11-07T12:53:05.007Z,34.32
2023-11-07T12:55:36.667Z,34.34
2023-11-07T12:58:06.510Z,34.41
2023-11-07T13:00:55.888Z,34.31
2023-11-07T13:03:27.144Z,33.98
2023-11-07T13:06:03.574Z,34.23
2023-11-07T13:08:32.967Z,34.16
2023-11-07T13:11:17.351Z,34.18
2023-11-07T13:13:47.062Z,34.40
2023-11-07T13:16:16.033Z,34.24
2023-11-07T13:18:49.765Z,34.36
2023-11-07T13:21:18.938Z,34.37
2023-11-07T13:23:48.306Z,34.27
2023-11-07T13:26:16.690Z,34.28
2023-11-07T13:28:45.384Z,34.31
2023-11-07T13:31:15.458Z,34.13
2023-11-07T13:33:46.281Z,34.10
2023-11-07T13:36:17.494Z,34.10
2023-11-07T13:38:47.886Z,34.11
2023-11-07T13:41:17.033Z,34.17
2023-11-07T13:43:45.130Z,34.01
2023-11-07T13:46:18.337Z,33.94
2023-11-07T13:48:46.999Z,34.06
2023-11-07T13:51:17.400Z,33.94
2023-11-07T13:53:45.524Z,33.95
2023-11-07T13:56:15.806Z,33.87
2023-11-07T13:58:44.477Z,34.00
2023-11-07T14:01:12.536Z,34.03
2023-11-07T14:03:41.740Z,34.04
2023-11-07T14:06:09.945Z,33.75
2023-11-07T14:08:39.330Z,33.89
2023-11-07T14:11:07.775Z,33.98
2023-11-07T14:13:36.067Z,33.95
2023-11-07T14:16:05.307Z,33.89
2023-11-07T14:18:33.333Z,33.86
2023-11-07T14:21:04.200Z,33.92
2023-11-07T14:23:32.214Z,33.86
2023-11-07T14:26:01.501Z,33.82
2023-11-07T14:28:29.572Z,33.89
2023-11-07T14:31:00.369Z,33.84
2023-11-07T14:33:31.824Z,33.79
2023-11-07T14:36:00.851Z,33.86
2023-11-07T14:38:30.371Z,33.82
2023-11-07T14:40:58.897Z,33.80
2023-11-07T14:43:28.612Z,33.67
2023-11-07T14:45:57.294Z,33.68
2023-11-07T14:48:25.349Z,33.80
2023-11-07T14:50:54.829Z,33.71
2023-11-07T14:53:24.476Z,33.61
2023-11-07T14:55:53.678Z,33.61
2023-11-07T14:58:23.237Z,33.69
2023-11-07T15:00:55.553Z,33.74
2023-11-07T15:03:24.175Z,33.55
2023-11-07T15:05:54.127Z,33.62
2023-11-07T15:08:23.287Z,33.57
2023-11-07T15:10:51.359Z,33.69
2023-11-07T15:13:19.337Z,33.60
2023-11-07T15:15:47.567Z,33.54
2023-11-07T15:18:18.431Z,33.71
2023-11-07T15:20:47.530Z,33.58
2023-11-07T15:23:15.413Z,33.61
2023-11-07T15:25:43.328Z,33.88
2023-11-07T15:28:12.726Z,33.29
2023-11-07T15:30:40.697Z,33.34
2023-11-07T15:33:08.865Z,33.34
2023-11-07T15:35:39.569Z,33.29
2023-11-07T15:38:08.459Z,33.06
2023-11-07T15:40:37.909Z,33.05
2023-11-07T15:43:06.905Z,33.10
2023-11-07T15:45:35.710Z,33.04
2023-11-07T15:48:08.419Z,33.10
2023-11-07T15:50:38.945Z,32.98
2023-11-07T15:53:09.875Z,32.77
2023-11-07T15:55:39.300Z,33.04
2023-11-07T15:58:07.821Z,33.02
2023-11-07T16:00:36.784Z,32.96
2023-11-07T16:03:06.300Z,33.01
2023-11-07T16:05:36.916Z,32.88
2023-11-07T16:08:08.613Z,32.89
2023-11-07T16:10:38.016Z,32.92
2023-11-07T16:13:06.622Z,33.01
2023-11-07T16:15:35.151Z,32.98
2023-11-07T16:18:04.001Z,32.87
2023-11-07T16:20:32.425Z,32.86
2023-11-07T16:23:00.723Z,32.75
2023-11-07T16:25:30.078Z,32.68
2023-11-07T16:27:58.141Z,32.68
2023-11-07T16:30:26.209Z,32.68
2023-11-07T16:32:54.232Z,32.74
2023-11-07T16:35:23.897Z,32.53
2023-11-07T16:37:52.977Z,32.57
2023-11-07T16:40:22.331Z,32.71
2023-11-07T16:42:53.363Z,32.56
2023-11-07T16:45:22.004Z,32.57
2023-11-07T16:47:52.425Z,32.49
2023-11-07T16:50:21.811Z,32.63
2023-11-07T16:52:50.039Z,32.36
2023-11-07T16:55:18.025Z,32.49
2023-11-07T16:57:46.825Z,32.45
2023-11-07T17:00:19.739Z,32.41
2023-11-07T17:02:48.627Z,32.50
2023-11-07T17:05:17.901Z,32.41
2023-11-07T17:07:46.720Z,32.50
2023-11-07T17:10:14.891Z,32.38
2023-11-07T17:12:42.860Z,32.46
2023-11-07T17:15:13.109Z,32.62
2023-11-07T17:17:45.520Z,32.70
2023-11-07T17:20:14.554Z,32.42
2023-11-07T17:22:42.593Z,32.76
2023-11-07T17:25:11.026Z,32.89
2023-11-07T17:27:39.323Z,33.12
2023-11-07T17:30:09.487Z,33.41
2023-11-07T17:32:38.969Z,33.41
2023-11-07T17:35:09.627Z,33.61
2023-11-07T17:37:43.790Z,33.25
2023-11-07T17:40:12.176Z,33.27
2023-11-07T17:42:40.559Z,33.49
2023-11-07T17:45:11.051Z,33.48
2023-11-07T17:47:40.207Z,33.58
2023-11-07T17:50:10.548Z,33.81
2023-11-07T17:52:38.609Z,33.95
2023-11-07T17:55:07.613Z,34.29
2023-11-07T17:57:35.529Z,34.39
2023-11-07T18:00:04.633Z,34.70
2023-11-07T18:02:40.754Z,34.77
2023-11-07T18:05:11.459Z,34.58
2023-11-07T18:07:39.581Z,34.33
2023-11-07T18:10:10.174Z,34.29
2023-11-07T18:12:38.181Z,34.07
2023-11-07T18:15:06.918Z,33.99
2023-11-07T18:17:35.210Z,34.10
2023-11-07T18:20:03.568Z,33.87
2023-11-07T18:22:32.970Z,33.93
2023-11-07T18:25:03.681Z,33.77
2023-11-07T18:27:33.309Z,33.67
2023-11-07T18:30:02.324Z,33.77
2023-11-07T18:32:30.230Z,33.44
2023-11-07T18:34:58.483Z,33.48
2023-11-07T18:37:29.367Z,33.51
2023-11-07T18:39:58.818Z,33.67
2023-11-07T18:42:28.017Z,33.56
2023-11-07T18:44:56.088Z,33.37
2023-11-07T18:47:24.039Z,33.54
2023-11-07T18:49:51.894Z,33.63
2023-11-07T18:52:24.042Z,33.46
2023-11-07T18:54:52.227Z,33.67
2023-11-07T18:57:23.360Z,33.59
2023-11-07T18:59:52.140Z,33.46
2023-11-07T19:02:20.506Z,33.54
2023-11-07T19:04:48.565Z,33.55
2023-11-07T19:07:17.792Z,33.59
2023-11-07T19:09:47.014Z,33.56
2023-11-07T19:12:15.301Z,33.54
2023-11-07T19:14:44.949Z,33.71
2023-11-07T19:17:12.907Z,33.75
2023-11-07T19:19:40.796Z,33.48
2023-11-07T19:22:08.864Z,33.78
2023-11-07T19:24:36.972Z,33.04
2023-11-07T19:27:05.249Z,33.34
2023-11-07T19:29:33.738Z,33.48
2023-11-07T19:32:03.898Z,33.55
2023-11-07T19:34:31.906Z,33.54
2023-11-07T19:37:00.027Z,33.65
2023-11-07T19:39:29.971Z,33.57
2023-11-07T19:42:02.967Z,33.61
2023-11-07T19:44:31.709Z,33.71
2023-11-07T19:46:59.742Z,33.44
2023-11-07T19:49:29.382Z,33.70
2023-11-07T19:51:59.193Z,33.66
2023-11-07T19:54:27.831Z,33.57
2023-11-07T19:56:57.074Z,33.50
2023-11-07T19:59:25.059Z,33.45
2023-11-07T20:01:53.681Z,33.37
2023-11-07T20:04:21.984Z,33.31
2023-11-07T20:06:51.534Z,33.23
2023-11-07T20:09:19.599Z,33.29
2023-11-07T20:11:50.020Z,33.12
2023-11-07T20:14:19.221Z,33.11
2023-11-07T20:16:47.263Z,33.05
2023-11-07T20:19:15.269Z,32.97
2023-11-07T20:21:43.304Z,32.92
2023-11-07T20:24:12.869Z,33.13
2023-11-07T20:26:40.823Z,33.19
2023-11-07T20:29:09.560Z,33.10
2023-11-07T20:31:37.491Z,33.07
2023-11-07T20:34:06.061Z,33.42
2023-11-07T20:36:34.189Z,33.33
2023-11-07T20:39:02.225Z,33.21
2023-11-07T20:41:34.471Z,33.14
2023-11-07T20:44:02.453Z,33.02
2023-11-07T20:46:34.081Z,33.05
2023-11-07T20:49:04.779Z,33.10
2023-11-07T20:51:35.539Z,32.93
2023-11-07T20:54:04.760Z,32.94
2023-11-07T20:56:34.841Z,32.88
2023-11-07T20:59:04.165Z,32.91
2023-11-07T21:01:32.224Z,33.00
2023-11-07T21:04:00.772Z,32.82
2023-11-07T21:06:28.926Z,32.98
2023-11-07T21:08:56.983Z,32.96
2023-11-07T21:11:24.938Z,32.98
2023-11-07T21:13:54.763Z,32.90
2023-11-07T21:16:23.564Z,32.78
2023-11-07T21:18:51.720Z,32.85
2023-11-07T21:21:20.000Z,32.81
2023-11-07T21:23:48.043Z,32.91
2023-11-07T21:26:16.107Z,32.87
2023-11-07T21:28:44.079Z,32.90
2023-11-07T21:31:13.406Z,32.96
2023-11-07T21:33:41.801Z,32.96
2023-11-07T21:36:09.809Z,32.80
2023-11-07T21:38:38.326Z,32.88
2023-11-07T21:41:06.753Z,32.73
2023-11-07T21:43:34.832Z,32.59
2023-11-07T21:46:04.300Z,32.69
2023-11-07T21:48:33.731Z,32.70
2023-11-07T21:51:01.861Z,32.79
2023-11-07T21:53:29.900Z,32.80
2023-11-07T21:55:58.798Z,32.74
2023-11-07T21:58:27.018Z,32.84
2023-11-07T22:00:54.943Z,32.94
2023-11-07T22:03:22.900Z,32.83
2023-11-07T22:05:52.310Z,32.73
2023-11-07T22:08:20.187Z,32.81
2023-11-07T22:10:49.077Z,32.96
2023-11-07T22:13:17.487Z,32.77
2023-11-07T22:15:45.732Z,32.84
2023-11-07T22:18:14.106Z,32.74
2023-11-07T22:20:43.104Z,32.82
2023-11-07T22:23:12.553Z,32.86
2023-11-07T22:25:40.665Z,32.77
2023-11-07T22:28:09.100Z,32.81
2023-11-07T22:30:37.276Z,32.86
2023-11-07T22:33:05.611Z,32.81
2023-11-07T22:35:35.375Z,32.89
2023-11-07T22:38:04.135Z,32.61
2023-11-07T22:40:34.104Z,32.59
2023-11-07T22:43:02.189Z,32.40
2023-11-07T22:45:30.780Z,32.41
2023-11-07T22:47:58.803Z,32.47
2023-11-07T22:50:26.807Z,32.34
2023-11-07T22:52:54.790Z,32.43
2023-11-07T22:55:22.873Z,32.55
2023-11-07T22:57:52.206Z,32.68
2023-11-07T23:00:29.107Z,32.39
2023-11-07T23:02:59.360Z,32.26
2023-11-07T23:05:27.433Z,32.12
2023-11-07T23:07:55.731Z,32.01
2023-11-07T23:10:24.093Z,31.88
2023-11-07T23:12:53.432Z,31.80
2023-11-07T23:15:21.402Z,31.69
2023-11-07T23:17:49.587Z,31.69
2023-11-07T23:20:20.206Z,31.77
2023-11-07T23:22:48.296Z,31.90
2023-11-07T23:25:17.560Z,31.66
2023-11-07T23:27:46.254Z,31.85
2023-11-07T23:30:15.825Z,31.79
2023-11-07T23:32:43.980Z,31.79
2023-11-07T23:35:12.172Z,32.07
2023-11-07T23:37:40.303Z,31.98
2023-11-07T23:40:12.023Z,31.86
2023-11-07T23:42:42.244Z,31.92
2023-11-07T23:45:11.548Z,32.00
2023-11-07T23:47:41.710Z,32.01
2023-11-07T23:50:11.160Z,31.91
2023-11-07T23:52:40.472Z,32.04
2023-11-07T23:55:10.002Z,31.95
2023-11-07T23:57:38.100Z,31.97
